sensor_id;sensor_type;location;lat;lon;timestamp;pressure;altitude;pressure_sealevel;temperature;humidity
7407;BME280;3745;56.964;24.128;2022-07-29T00:02:08;101884.59;;;16.28;100.00
7407;BME280;3745;56.964;24.128;2022-07-29T00:04:35;101879.47;;;16.28;100.00
7407;BME280;3745;56.964;24.128;2022-07-29T00:07:02;101884.50;;;16.19;100.00
7407;BME280;3745;56.964;24.128;2022-07-29T00:09:27;101880.25;;;16.19;100.00
7407;BME280;3745;56.964;24.128;2022-07-29T00:11:55;101860.63;;;16.14;100.00
7407;BME280;3745;56.964;24.128;2022-07-29T00:14:22;101877.72;;;16.18;100.00
7407;BME280;3745;56.964;24.128;2022-07-29T00:16:47;101792.13;;;15.61;100.00
7407;BME280;3745;56.964;24.128;2022-07-29T00:19:13;101881.94;;;16.16;100.00
7407;BME280;3745;56.964;24.128;2022-07-29T00:21:38;101886.13;;;16.08;100.00
7407;BME280;3745;56.964;24.128;2022-07-29T00:24:04;101850.22;;;15.87;100.00
7407;BME280;3745;56.964;24.128;2022-07-29T00:26:30;101877.63;;;16.12;100.00
7407;BME280;3745;56.964;24.128;2022-07-29T00:28:58;101859.66;;;15.98;100.00
7407;BME280;3745;56.964;24.128;2022-07-29T00:31:24;101874.19;;;16.04;100.00
7407;BME280;3745;56.964;24.128;2022-07-29T00:33:50;101875.91;;;16.05;100.00
7407;BME280;3745;56.964;24.128;2022-07-29T00:36:15;101825.41;;;15.75;100.00
7407;BME280;3745;56.964;24.128;2022-07-29T00:38:41;101875.88;;;16.02;100.00
7407;BME280;3745;56.964;24.128;2022-07-29T00:41:11;101877.59;;;16.06;100.00
7407;BME280;3745;56.964;24.128;2022-07-29T00:43:37;101882.63;;;16.00;100.00
7407;BME280;3745;56.964;24.128;2022-07-29T00:46:02;101879.25;;;16.01;100.00
7407;BME280;3745;56.964;24.128;2022-07-29T00:48:28;101871.53;;;15.95;100.00
7407;BME280;3745;56.964;24.128;2022-07-29T00:50:56;101882.63;;;16.00;100.00
7407;BME280;3745;56.964;24.128;2022-07-29T00:53:23;101882.63;;;16.00;100.00
7407;BME280;3745;56.964;24.128;2022-07-29T00:55:50;101882.63;;;15.97;100.00
7407;BME280;3745;56.964;24.128;2022-07-29T00:58:16;101880.09;;;15.98;100.00
7407;BME280;3745;56.964;24.128;2022-07-29T01:00:42;101884.38;;;16.04;100.00
7407;BME280;3745;56.964;24.128;2022-07-29T01:03:08;101885.22;;;16.03;100.00
7407;BME280;3745;56.964;24.128;2022-07-29T01:05:35;101865.59;;;15.97;100.00
7407;BME280;3745;56.964;24.128;2022-07-29T01:08:01;101863.06;;;15.99;100.00
7407;BME280;3745;56.964;24.128;2022-07-29T01:10:27;101879.34;;;16.10;100.00
7407;BME280;3745;56.964;24.128;2022-07-29T01:12:56;101875.94;;;16.11;100.00
7407;BME280;3745;56.964;24.128;2022-07-29T01:15:23;101853.66;;;15.95;100.00
7407;BME280;3745;56.964;24.128;2022-07-29T01:23:46;101879.34;;;16.10;100.00
7407;BME280;3745;56.964;24.128;2022-07-29T01:26:41;101887.84;;;16.12;100.00
7407;BME280;3745;56.964;24.128;2022-07-29T01:34:21;101877.41;;;15.85;100.00
7407;BME280;3745;56.964;24.128;2022-07-29T01:37:01;101810.72;;;15.48;100.00
7407;BME280;3745;56.964;24.128;2022-07-29T01:39:36;101884.22;;;15.83;100.00
7407;BME280;3745;56.964;24.128;2022-07-29T01:47:46;101883.41;;;15.91;100.00
7407;BME280;3745;56.964;24.128;2022-07-29T01:50:14;101889.34;;;15.86;100.00
7407;BME280;3745;56.964;24.128;2022-07-29T01:52:56;101889.41;;;15.92;100.00
7407;BME280;3745;56.964;24.128;2022-07-29T01:55:25;101884.28;;;15.92;100.00
7407;BME280;3745;56.964;24.128;2022-07-29T01:57:52;101826.13;;;15.60;100.00
7407;BME280;3745;56.964;24.128;2022-07-29T02:00:20;101896.28;;;15.99;100.00
7407;BME280;3745;56.964;24.128;2022-07-29T02:02:47;101897.19;;;16.07;100.00
7407;BME280;3745;56.964;24.128;2022-07-29T02:05:16;101879.13;;;15.86;100.00
7407;BME280;3745;56.964;24.128;2022-07-29T02:07:46;101901.31;;;15.90;100.00
7407;BME280;3745;56.964;24.128;2022-07-29T02:10:13;101896.09;;;15.81;100.00
7407;BME280;3745;56.964;24.128;2022-07-29T02:12:42;101812.22;;;15.31;100.00
7407;BME280;3745;56.964;24.128;2022-07-29T02:15:10;101905.44;;;15.77;100.00
7407;BME280;3745;56.964;24.128;2022-07-29T02:17:42;101888.38;;;15.73;100.00
7407;BME280;3745;56.964;24.128;2022-07-29T02:20:09;101908.00;;;15.82;100.00
7407;BME280;3745;56.964;24.128;2022-07-29T02:22:37;101910.59;;;15.85;100.00
7407;BME280;3745;56.964;24.128;2022-07-29T02:25:06;101911.47;;;15.84;100.00
7407;BME280;3745;56.964;24.128;2022-07-29T02:27:34;101914.03;;;15.87;100.00
7407;BME280;3745;56.964;24.128;2022-07-29T02:30:01;101919.16;;;15.90;100.00
7407;BME280;3745;56.964;24.128;2022-07-29T02:32:28;101913.16;;;15.85;100.00
7407;BME280;3745;56.964;24.128;2022-07-29T02:34:56;101892.47;;;15.60;100.00
7407;BME280;3745;56.964;24.128;2022-07-29T02:37:23;101923.28;;;15.79;100.00
7407;BME280;3745;56.964;24.128;2022-07-29T02:39:51;101924.97;;;15.73;100.00
7407;BME280;3745;56.964;24.128;2022-07-29T02:42:18;101909.53;;;15.61;100.00
7407;BME280;3745;56.964;24.128;2022-07-29T02:44:44;101923.31;;;15.82;100.00
7407;BME280;3745;56.964;24.128;2022-07-29T02:47:20;101924.25;;;15.88;100.00
7407;BME280;3745;56.964;24.128;2022-07-29T02:52:21;101919.81;;;15.70;100.00
7407;BME280;3745;56.964;24.128;2022-07-29T02:55:10;101923.22;;;15.69;100.00
7407;BME280;3745;56.964;24.128;2022-07-29T02:57:43;101906.09;;;15.59;100.00
7407;BME280;3745;56.964;24.128;2022-07-29T03:00:10;101925.75;;;15.68;100.00
7407;BME280;3745;56.964;24.128;2022-07-29T03:02:40;101923.22;;;15.69;100.00
7407;BME280;3745;56.964;24.128;2022-07-29T03:05:09;101922.41;;;15.73;100.00
7407;BME280;3745;56.964;24.128;2022-07-29T03:07:37;101930.03;;;15.70;100.00
7407;BME280;3745;56.964;24.128;2022-07-29T03:10:04;101916.38;;;15.65;100.00
7407;BME280;3745;56.964;24.128;2022-07-29T03:12:31;101927.41;;;15.66;100.00
7407;BME280;3745;56.964;24.128;2022-07-29T03:14:58;101920.59;;;15.62;100.00
7407;BME280;3745;56.964;24.128;2022-07-29T03:17:24;101922.31;;;15.66;100.00
7407;BME280;3745;56.964;24.128;2022-07-29T03:19:50;101930.06;;;15.73;100.00
7407;BME280;3745;56.964;24.128;2022-07-29T03:22:16;101932.63;;;15.75;100.00
7407;BME280;3745;56.964;24.128;2022-07-29T03:24:42;101933.50;;;15.79;100.00
7407;BME280;3745;56.964;24.128;2022-07-29T03:27:07;101938.66;;;15.82;100.00
7407;BME280;3745;56.964;24.128;2022-07-29T03:29:33;101936.97;;;15.85;100.00
7407;BME280;3745;56.964;24.128;2022-07-29T03:31:59;101936.19;;;15.89;100.00
7407;BME280;3745;56.964;24.128;2022-07-29T03:34:25;101940.47;;;15.92;100.00
7407;BME280;3745;56.964;24.128;2022-07-29T03:36:50;101942.16;;;15.90;100.00
7407;BME280;3745;56.964;24.128;2022-07-29T03:39:23;101942.13;;;15.87;100.00
7407;BME280;3745;56.964;24.128;2022-07-29T03:41:53;101947.25;;;15.90;100.00
7407;BME280;3745;56.964;24.128;2022-07-29T03:44:21;101948.91;;;15.88;100.00
7407;BME280;3745;56.964;24.128;2022-07-29T03:46:49;101892.47;;;15.60;100.00
7407;BME280;3745;56.964;24.128;2022-07-29T03:49:16;101947.31;;;15.96;100.00
7407;BME280;3745;56.964;24.128;2022-07-29T03:51:44;101945.63;;;15.98;100.00
7407;BME280;3745;56.964;24.128;2022-07-29T03:54:10;101954.19;;;16.06;100.00
7407;BME280;3745;56.964;24.128;2022-07-29T03:56:42;101940.66;;;16.13;100.00
7407;BME280;3745;56.964;24.128;2022-07-29T03:59:09;101935.50;;;16.07;100.00
7407;BME280;3745;56.964;24.128;2022-07-29T04:01:37;101921.84;;;16.02;100.00
7407;BME280;3745;56.964;24.128;2022-07-29T04:04:04;101960.38;;;16.27;100.00
7407;BME280;3745;56.964;24.128;2022-07-29T04:06:39;101965.56;;;16.35;100.00
7407;BME280;3745;56.964;24.128;2022-07-29T04:09:05;101969.81;;;16.33;100.00
7407;BME280;3745;56.964;24.128;2022-07-29T04:11:30;101921.88;;;16.09;100.00
7407;BME280;3745;56.964;24.128;2022-07-29T04:13:56;101918.50;;;16.12;100.00
7407;BME280;3745;56.964;24.128;2022-07-29T04:16:22;101947.66;;;16.35;100.00
7407;BME280;3745;56.964;24.128;2022-07-29T04:18:47;101959.69;;;16.45;100.00
7407;BME280;3745;56.964;24.128;2022-07-29T04:21:13;101928.00;;;16.25;100.00
7407;BME280;3745;56.964;24.128;2022-07-29T04:23:38;101965.00;;;16.66;100.00
7407;BME280;3745;56.964;24.128;2022-07-29T04:26:04;101962.50;;;16.80;100.00
7407;BME280;3745;56.964;24.128;2022-07-29T04:28:30;101940.38;;;16.82;100.00
7407;BME280;3745;56.964;24.128;2022-07-29T04:30:56;101963.53;;;17.11;100.00
7407;BME280;3745;56.964;24.128;2022-07-29T04:33:21;101960.16;;;17.12;100.00
7407;BME280;3745;56.964;24.128;2022-07-29T04:35:47;101961.88;;;17.13;100.00
7407;BME280;3745;56.964;24.128;2022-07-29T04:38:12;101963.59;;;17.23;100.00
7407;BME280;3745;56.964;24.128;2022-07-29T04:40:38;101967.81;;;17.09;100.00
7407;BME280;3745;56.964;24.128;2022-07-29T04:43:03;101955.84;;;17.03;100.00
7407;BME280;3745;56.964;24.128;2022-07-29T04:45:29;101968.66;;;17.14;100.00
7407;BME280;3745;56.964;24.128;2022-07-29T04:47:55;101919.16;;;17.00;100.00
7407;BME280;3745;56.964;24.128;2022-07-29T04:50:21;101975.63;;;17.42;100.00
7407;BME280;3745;56.964;24.128;2022-07-29T04:52:47;101965.41;;;17.45;100.00
7407;BME280;3745;56.964;24.128;2022-07-29T04:55:13;101975.66;;;17.45;100.00
7407;BME280;3745;56.964;24.128;2022-07-29T04:57:38;101982.47;;;17.40;100.00
7407;BME280;3745;56.964;24.128;2022-07-29T05:00:05;101990.13;;;17.42;100.00
7407;BME280;3745;56.964;24.128;2022-07-29T05:02:31;101987.59;;;17.43;100.00
7407;BME280;3745;56.964;24.128;2022-07-29T05:04:57;101995.19;;;17.29;100.00
7407;BME280;3745;56.964;24.128;2022-07-29T05:07:23;101978.06;;;17.12;100.00
7407;BME280;3745;56.964;24.128;2022-07-29T05:09:48;101992.59;;;17.19;100.00
7407;BME280;3745;56.964;24.128;2022-07-29T05:12:14;102007.94;;;17.16;100.00
7407;BME280;3745;56.964;24.128;2022-07-29T05:14:39;101984.00;;;17.08;100.00
7407;BME280;3745;56.964;24.128;2022-07-29T05:17:05;102002.00;;;17.21;100.00
7407;BME280;3745;56.964;24.128;2022-07-29T05:19:31;101996.84;;;17.17;100.00
7407;BME280;3745;56.964;24.128;2022-07-29T05:21:57;101958.31;;;16.93;100.00
7407;BME280;3745;56.964;24.128;2022-07-29T05:24:22;101996.91;;;17.30;100.00
7407;BME280;3745;56.964;24.128;2022-07-29T05:26:48;101999.56;;;17.47;100.00
7407;BME280;3745;56.964;24.128;2022-07-29T05:29:13;101914.03;;;16.97;100.00
7407;BME280;3745;56.964;24.128;2022-07-29T05:31:39;102003.78;;;17.34;100.00
7407;BME280;3745;56.964;24.128;2022-07-29T05:34:04;102004.56;;;17.29;100.00
7407;BME280;3745;56.964;24.128;2022-07-29T05:36:30;102006.25;;;17.24;100.00
7407;BME280;3745;56.964;24.128;2022-07-29T05:38:55;101998.53;;;17.13;100.00
7407;BME280;3745;56.964;24.128;2022-07-29T05:41:21;101994.25;;;17.11;100.00
7407;BME280;3745;56.964;24.128;2022-07-29T05:43:47;102009.63;;;17.17;100.00
7407;BME280;3745;56.964;24.128;2022-07-29T05:46:12;101984.91;;;17.19;100.00
7407;BME280;3745;56.964;24.128;2022-07-29T05:48:39;101994.38;;;17.35;100.00
7407;BME280;3745;56.964;24.128;2022-07-29T05:51:05;102008.16;;;17.58;100.00
7407;BME280;3745;56.964;24.128;2022-07-29T05:53:30;102007.41;;;17.80;100.00
7407;BME280;3745;56.964;24.128;2022-07-29T05:55:56;101985.22;;;17.92;100.00
7407;BME280;3745;56.964;24.128;2022-07-29T05:58:21;101970.69;;;17.84;100.00
7407;BME280;3745;56.964;24.128;2022-07-29T06:00:47;102002.31;;;18.02;100.00
7407;BME280;3745;56.964;24.128;2022-07-29T06:03:13;101992.91;;;17.98;100.00
7407;BME280;3745;56.964;24.128;2022-07-29T06:05:38;102005.72;;;18.01;100.00
7407;BME280;3745;56.964;24.128;2022-07-29T06:08:04;102011.69;;;17.97;100.00
7407;BME280;3745;56.964;24.128;2022-07-29T06:10:34;102017.69;;;17.99;100.00
7407;BME280;3745;56.964;24.128;2022-07-29T06:13:00;102013.41;;;18.01;100.00
7407;BME280;3745;56.964;24.128;2022-07-29T06:15:26;102011.72;;;18.06;100.00
7407;BME280;3745;56.964;24.128;2022-07-29T06:17:52;101992.06;;;18.06;100.00
7407;BME280;3745;56.964;24.128;2022-07-29T06:20:18;102009.19;;;18.18;100.00
7407;BME280;3745;56.964;24.128;2022-07-29T06:22:44;102006.63;;;18.18;100.00
7407;BME280;3745;56.964;24.128;2022-07-29T06:25:09;102018.59;;;18.25;100.00
7407;BME280;3745;56.964;24.128;2022-07-29T06:27:35;101970.72;;;18.06;100.00
7407;BME280;3745;56.964;24.128;2022-07-29T06:30:01;101973.31;;;18.16;100.00
7407;BME280;3745;56.964;24.128;2022-07-29T06:32:27;101969.91;;;18.20;100.00
7407;BME280;3745;56.964;24.128;2022-07-29T06:34:53;102025.47;;;18.56;100.00
7407;BME280;3745;56.964;24.128;2022-07-29T06:37:18;102022.06;;;18.51;100.00
7407;BME280;3745;56.964;24.128;2022-07-29T06:39:46;102004.91;;;18.17;100.00
7407;BME280;3745;56.964;24.128;2022-07-29T06:42:22;101869.81;;;17.28;100.00
7407;BME280;3745;56.964;24.128;2022-07-29T06:44:50;101945.00;;;17.57;100.00
7407;BME280;3745;56.964;24.128;2022-07-29T06:47:16;101949.22;;;17.54;100.00
7407;BME280;3745;56.964;24.128;2022-07-29T06:49:41;102030.53;;;18.20;100.00
7407;BME280;3745;56.964;24.128;2022-07-29T06:52:07;102027.22;;;18.54;100.00
7407;BME280;3745;56.964;24.128;2022-07-29T06:54:33;101977.59;;;18.52;100.00
7407;BME280;3745;56.964;24.128;2022-07-29T06:56:59;102037.47;;;18.81;100.00
7407;BME280;3745;56.964;24.128;2022-07-29T06:59:26;102032.34;;;18.69;100.00
7407;BME280;3745;56.964;24.128;2022-07-29T07:01:52;102027.22;;;18.57;100.00
7407;BME280;3745;56.964;24.128;2022-07-29T07:04:18;102016.91;;;18.21;100.00
7407;BME280;3745;56.964;24.128;2022-07-29T07:06:44;102040.81;;;18.29;100.00
7407;BME280;3745;56.964;24.128;2022-07-29T07:09:10;102004.88;;;17.90;100.00
7407;BME280;3745;56.964;24.128;2022-07-29T07:11:35;102021.09;;;18.01;100.00
7407;BME280;3745;56.964;24.128;2022-07-29T07:14:02;102048.47;;;18.11;100.00
7407;BME280;3745;56.964;24.128;2022-07-29T07:16:27;101922.72;;;17.41;100.00
7407;BME280;3745;56.964;24.128;2022-07-29T07:18:53;102054.44;;;18.13;100.00
7407;BME280;3745;56.964;24.128;2022-07-29T07:21:18;102051.06;;;18.23;100.00
7407;BME280;3745;56.964;24.128;2022-07-29T07:23:44;102055.34;;;18.43;100.00
7407;BME280;3745;56.964;24.128;2022-07-29T07:26:10;102058.84;;;18.61;100.00
7407;BME280;3745;56.964;24.128;2022-07-29T07:28:36;102004.94;;;18.41;100.00
7407;BME280;3745;56.964;24.128;2022-07-29T07:31:02;102037.47;;;18.69;100.00
7407;BME280;3745;56.964;24.128;2022-07-29T07:33:27;102014.38;;;18.84;100.00
7407;BME280;3745;56.964;24.128;2022-07-29T07:35:53;102056.19;;;19.32;100.00
7407;BME280;3745;56.964;24.128;2022-07-29T07:38:19;102027.06;;;19.36;100.00
7407;BME280;3745;56.964;24.128;2022-07-29T07:40:44;102020.28;;;19.14;100.00
7407;BME280;3745;56.964;24.128;2022-07-29T07:43:11;102029.72;;;19.12;100.00
7407;BME280;3745;56.964;24.128;2022-07-29T07:45:37;102034.00;;;19.10;100.00
7407;BME280;3745;56.964;24.128;2022-07-29T07:48:04;102062.19;;;19.34;100.00
7407;BME280;3745;56.964;24.128;2022-07-29T07:50:30;102067.34;;;19.43;100.00
7407;BME280;3745;56.964;24.128;2022-07-29T07:52:56;102051.88;;;19.38;100.00
7407;BME280;3745;56.964;24.128;2022-07-29T07:55:26;102058.75;;;19.42;100.00
7407;BME280;3745;56.964;24.128;2022-07-29T07:57:53;102062.94;;;19.72;100.00
7407;BME280;3745;56.964;24.128;2022-07-29T08:00:19;102009.16;;;19.25;100.00
7407;BME280;3745;56.964;24.128;2022-07-29T08:02:44;102069.88;;;19.52;100.00
7407;BME280;3745;56.964;24.128;2022-07-29T08:05:11;102075.84;;;19.59;100.00
7407;BME280;3745;56.964;24.128;2022-07-29T08:07:38;102078.44;;;19.53;100.00
7407;BME280;3745;56.964;24.128;2022-07-29T08:10:04;102078.44;;;19.33;100.00
7407;BME280;3745;56.964;24.128;2022-07-29T08:12:30;102067.34;;;19.08;100.00
7407;BME280;3745;56.964;24.128;2022-07-29T08:14:56;102059.66;;;19.16;100.00
7407;BME280;3745;56.964;24.128;2022-07-29T08:17:21;102030.50;;;19.29;100.00
7407;BME280;3745;56.964;24.128;2022-07-29T08:19:47;102070.72;;;19.53;100.00
7407;BME280;3745;56.964;24.128;2022-07-29T08:22:14;102075.03;;;19.43;100.00
7407;BME280;3745;56.964;24.128;2022-07-29T08:24:39;102010.94;;;18.94;100.00
7407;BME280;3745;56.964;24.128;2022-07-29T08:27:13;102074.22;;;19.09;100.00
7407;BME280;3745;56.964;24.128;2022-07-29T08:29:39;102053.63;;;19.23;100.00
7407;BME280;3745;56.964;24.128;2022-07-29T08:32:05;102047.66;;;19.27;100.00
7407;BME280;3745;56.964;24.128;2022-07-29T08:34:31;102074.16;;;19.30;100.00
7407;BME280;3745;56.964;24.128;2022-07-29T08:36:57;102087.03;;;19.05;100.00
7407;BME280;3745;56.964;24.128;2022-07-29T08:39:23;102087.03;;;18.86;100.00
7407;BME280;3745;56.964;24.128;2022-07-29T08:41:50;102086.16;;;19.04;100.00
7407;BME280;3745;56.964;24.128;2022-07-29T08:44:20;102023.78;;;18.76;100.00
7407;BME280;3745;56.964;24.128;2022-07-29T08:46:48;102090.44;;;19.28;100.00
7407;BME280;3745;56.964;24.128;2022-07-29T08:49:15;102092.16;;;19.44;100.00
7407;BME280;3745;56.964;24.128;2022-07-29T08:51:42;102086.97;;;19.62;100.00
7407;BME280;3745;56.964;24.128;2022-07-29T08:54:09;102020.25;;;19.26;100.00
7407;BME280;3745;56.964;24.128;2022-07-29T08:56:36;102092.13;;;19.59;100.00
7407;BME280;3745;56.964;24.128;2022-07-29T08:59:04;102086.16;;;19.37;100.00
7407;BME280;3745;56.964;24.128;2022-07-29T09:01:32;102090.38;;;19.61;100.00
7407;BME280;3745;56.964;24.128;2022-07-29T09:03:59;102091.97;;;19.98;100.00
7407;BME280;3745;56.964;24.128;2022-07-29T09:06:30;102103.97;;;19.90;100.00
7407;BME280;3745;56.964;24.128;2022-07-29T09:08:59;102098.91;;;19.66;100.00
7407;BME280;3745;56.964;24.128;2022-07-29T09:11:26;102044.16;;;19.58;100.00
7407;BME280;3745;56.964;24.128;2022-07-29T09:13:52;102095.44;;;19.82;100.00
7407;BME280;3745;56.964;24.128;2022-07-29T09:16:18;102082.69;;;19.57;100.00
7407;BME280;3745;56.964;24.128;2022-07-29T09:18:47;102044.22;;;19.40;100.00
7407;BME280;3745;56.964;24.128;2022-07-29T09:21:16;102071.53;;;19.64;100.00
7407;BME280;3745;56.964;24.128;2022-07-29T09:24:07;102088.59;;;19.78;100.00
7407;BME280;3745;56.964;24.128;2022-07-29T09:26:40;102093.72;;;19.81;100.00
7407;BME280;3745;56.964;24.128;2022-07-29T09:29:15;102088.53;;;19.90;100.00
7407;BME280;3745;56.964;24.128;2022-07-29T09:31:44;102020.16;;;19.61;100.00
7407;BME280;3745;56.964;24.128;2022-07-29T09:34:11;102092.84;;;19.93;100.00
7407;BME280;3745;56.964;24.128;2022-07-29T09:36:45;102084.34;;;19.80;100.00
7407;BME280;3745;56.964;24.128;2022-07-29T09:39:12;102085.19;;;19.79;100.00
7407;BME280;3745;56.964;24.128;2022-07-29T09:41:52;102076.47;;;20.11;100.00
7407;BME280;3745;56.964;24.128;2022-07-29T09:44:19;102054.09;;;20.25;100.00
7407;BME280;3745;56.964;24.128;2022-07-29T09:47:01;102088.25;;;20.51;100.00
7407;BME280;3745;56.964;24.128;2022-07-29T09:49:35;102088.22;;;20.57;100.00
7407;BME280;3745;56.964;24.128;2022-07-29T09:52:07;102095.22;;;20.31;100.00
7407;BME280;3745;56.964;24.128;2022-07-29T09:54:33;102029.34;;;20.12;100.00
7407;BME280;3745;56.964;24.128;2022-07-29T09:57:07;102086.41;;;20.70;100.00
7407;BME280;3745;56.964;24.128;2022-07-29T09:59:34;102086.63;;;20.38;100.00
7407;BME280;3745;56.964;24.128;2022-07-29T10:02:00;102080.69;;;20.27;100.00
7407;BME280;3745;56.964;24.128;2022-07-29T10:04:41;102091.06;;;19.99;100.00
7407;BME280;3745;56.964;24.128;2022-07-29T10:07:07;102078.19;;;20.12;100.00
7407;BME280;3745;56.964;24.128;2022-07-29T10:09:33;102084.88;;;20.40;100.00
7407;BME280;3745;56.964;24.128;2022-07-29T10:12:10;102086.53;;;20.54;100.00
7407;BME280;3745;56.964;24.128;2022-07-29T10:14:39;102079.59;;;20.58;100.00
7407;BME280;3745;56.964;24.128;2022-07-29T10:17:06;102088.28;;;20.48;100.00
7407;BME280;3745;56.964;24.128;2022-07-29T10:19:33;102089.91;;;20.58;100.00
7407;BME280;3745;56.964;24.128;2022-07-29T10:22:00;102095.13;;;20.46;100.00
7407;BME280;3745;56.964;24.128;2022-07-29T10:24:27;102087.34;;;20.55;100.00
7407;BME280;3745;56.964;24.128;2022-07-29T10:26:57;102069.31;;;20.58;100.00
7407;BME280;3745;56.964;24.128;2022-07-29T10:29:23;102067.34;;;20.90;100.00
7407;BME280;3745;56.964;24.128;2022-07-29T10:42:55;102073.28;;;20.95;100.00
7407;BME280;3745;56.964;24.128;2022-07-29T10:45:26;102086.78;;;21.25;100.00
7407;BME280;3745;56.964;24.128;2022-07-29T10:48:05;102055.38;;;20.86;100.00
7407;BME280;3745;56.964;24.128;2022-07-29T10:53:20;102080.09;;;21.02;100.00
7407;BME280;3745;56.964;24.128;2022-07-29T10:55:46;102034.78;;;20.86;100.00
7407;BME280;3745;56.964;24.128;2022-07-29T10:58:19;102046.63;;;21.02;100.00
7407;BME280;3745;56.964;24.128;2022-07-29T11:00:47;102089.88;;;21.58;100.00
7407;BME280;3745;56.964;24.128;2022-07-29T11:03:47;102092.38;;;21.63;100.00
7407;BME280;3745;56.964;24.128;2022-07-29T11:06:14;102061.94;;;21.21;100.00
7407;BME280;3745;56.964;24.128;2022-07-29T11:08:40;102094.53;;;21.23;100.00
7407;BME280;3745;56.964;24.128;2022-07-29T11:16:14;102091.25;;;21.04;100.00
7407;BME280;3745;56.964;24.128;2022-07-29T11:21:44;101930.97;;;19.85;100.00
7407;BME280;3745;56.964;24.128;2022-07-29T11:24:22;102055.47;;;20.74;100.00
7407;BME280;3745;56.964;24.128;2022-07-29T11:27:13;102093.06;;;20.93;100.00
7407;BME280;3745;56.964;24.128;2022-07-29T11:29:56;102088.03;;;20.78;100.00
7407;BME280;3745;56.964;24.128;2022-07-29T11:32:24;102053.84;;;20.61;100.00
7407;BME280;3745;56.964;24.128;2022-07-29T11:35:12;102067.63;;;20.57;100.00
7407;BME280;3745;56.964;24.128;2022-07-29T11:37:38;102062.69;;;20.24;100.00
7407;BME280;3745;56.964;24.128;2022-07-29T11:50:17;102096.81;;;20.53;100.00
7407;BME280;3745;56.964;24.128;2022-07-29T11:52:47;102076.34;;;20.35;100.00
7407;BME280;3745;56.964;24.128;2022-07-29T11:55:21;102096.91;;;20.38;100.00
7407;BME280;3745;56.964;24.128;2022-07-29T11:57:51;101990.94;;;19.81;100.00
7407;BME280;3745;56.964;24.128;2022-07-29T12:00:34;102095.13;;;20.46;100.00
7407;BME280;3745;56.964;24.128;2022-07-29T12:03:04;102102.06;;;20.35;100.00
7407;BME280;3745;56.964;24.128;2022-07-29T12:05:34;102102.09;;;20.29;100.00
7407;BME280;3745;56.964;24.128;2022-07-29T12:08:18;102053.31;;;20.12;100.00
7407;BME280;3745;56.964;24.128;2022-07-29T12:10:46;102090.88;;;20.43;100.00
7407;BME280;3745;56.964;24.128;2022-07-29T12:13:14;102081.56;;;20.26;100.00
7407;BME280;3745;56.964;24.128;2022-07-29T12:15:41;102083.25;;;20.33;100.00
7407;BME280;3745;56.964;24.128;2022-07-29T12:18:17;102092.56;;;20.46;100.00
7407;BME280;3745;56.964;24.128;2022-07-29T12:20:43;102102.09;;;20.29;100.00
7407;BME280;3745;56.964;24.128;2022-07-29T12:23:10;102050.94;;;19.77;100.00
7407;BME280;3745;56.964;24.128;2022-07-29T12:25:41;102101.38;;;19.98;100.00
7407;BME280;3745;56.964;24.128;2022-07-29T12:28:12;102069.81;;;19.70;100.00
7407;BME280;3745;56.964;24.128;2022-07-29T12:30:46;102099.66;;;19.98;100.00
7407;BME280;3745;56.964;24.128;2022-07-29T12:33:34;102085.16;;;19.82;100.00
7407;BME280;3745;56.964;24.128;2022-07-29T12:36:02;102067.28;;;19.61;100.00
7407;BME280;3745;56.964;24.128;2022-07-29T12:38:28;102097.09;;;19.98;100.00
7407;BME280;3745;56.964;24.128;2022-07-29T12:40:54;102098.78;;;20.09;100.00
7407;BME280;3745;56.964;24.128;2022-07-29T12:43:21;102084.16;;;20.12;100.00
7407;BME280;3745;56.964;24.128;2022-07-29T12:45:53;102025.28;;;19.71;100.00
7407;BME280;3745;56.964;24.128;2022-07-29T12:48:38;102086.69;;;20.26;100.00
7407;BME280;3745;56.964;24.128;2022-07-29T12:51:05;102036.34;;;19.84;100.00
7407;BME280;3745;56.964;24.128;2022-07-29T12:53:32;102105.59;;;20.10;100.00
7407;BME280;3745;56.964;24.128;2022-07-29T12:55:59;102094.50;;;20.03;100.00
7407;BME280;3745;56.964;24.128;2022-07-29T12:58:32;102103.13;;;19.96;100.00
7407;BME280;3745;56.964;24.128;2022-07-29T13:03:45;102112.47;;;20.08;100.00
7407;BME280;3745;56.964;24.128;2022-07-29T13:06:44;102083.38;;;19.96;100.00
7407;BME280;3745;56.964;24.128;2022-07-29T13:09:15;102112.53;;;19.98;100.00
7407;BME280;3745;56.964;24.128;2022-07-29T13:11:48;102092.84;;;19.88;100.00
7407;BME280;3745;56.964;24.128;2022-07-29T13:14:30;102109.91;;;20.08;100.00
7407;BME280;3745;56.964;24.128;2022-07-29T13:17:06;102050.91;;;19.83;100.00
7407;BME280;3745;56.964;24.128;2022-07-29T13:19:52;102102.13;;;20.20;100.00
7407;BME280;3745;56.964;24.128;2022-07-29T13:22:23;102095.28;;;20.19;100.00
7407;BME280;3745;56.964;24.128;2022-07-29T13:25:02;102075.66;;;20.04;100.00
7407;BME280;3745;56.964;24.128;2022-07-29T13:27:30;102103.84;;;20.24;100.00
7407;BME280;3745;56.964;24.128;2022-07-29T13:30:02;101980.84;;;19.53;100.00
7407;BME280;3745;56.964;24.128;2022-07-29T13:32:29;102091.91;;;20.08;100.00
7407;BME280;3745;56.964;24.128;2022-07-29T13:34:57;102017.63;;;19.59;100.00
7407;BME280;3745;56.964;24.128;2022-07-29T13:37:23;102096.97;;;20.23;100.00
7407;BME280;3745;56.964;24.128;2022-07-29T13:39:49;102061.03;;;20.14;100.00
7407;BME280;3745;56.964;24.128;2022-07-29T13:42:14;102098.66;;;20.36;100.00
7407;BME280;3745;56.964;24.128;2022-07-29T13:44:40;102088.38;;;20.33;100.00
7407;BME280;3745;56.964;24.128;2022-07-29T13:47:07;102081.53;;;20.29;100.00
7407;BME280;3745;56.964;24.128;2022-07-29T13:49:33;102090.09;;;20.28;100.00
7407;BME280;3745;56.964;24.128;2022-07-29T13:51:59;101949.19;;;19.35;100.00